Time;durP1;ratioP1;P1;durP2;ratioP2;P2;SDS_P1;SDS_P2;PMS_P1;PMS_P2;Temp;Humidity;BMP_temperature;BMP_pressure;BME280_temperature;BME280_humidity;BME280_pressure;Samples;Min_cycle;Max_cycle;Signal;HPM_P1;HPM_P2
2022/07/10 00:00:06;;;;;;;0.65;0.30;;;25.20;41.30;;;;;;5010130;28;20030;-48
2022/07/10 00:02:38;;;;;;;;;;;25.20;41.30;;;;;;5009662;28;20125;-57
2022/07/10 00:05:05;;;;;;;0.82;0.40;;;25.20;41.40;;;;;;5009559;28;19917;-53
2022/07/10 00:07:31;;;;;;;0.70;0.30;;;25.10;41.40;;;;;;5009948;28;20030;-51
2022/07/10 00:09:57;;;;;;;0.57;0.30;;;25.10;41.40;;;;;;5009056;28;20104;-52
2022/07/10 00:12:22;;;;;;;0.60;0.35;;;25.10;41.40;;;;;;5009632;28;20037;-53
2022/07/10 00:14:48;;;;;;;0.70;0.40;;;25.10;41.40;;;;;;5010417;28;20109;-51
2022/07/10 00:17:14;;;;;;;0.95;0.45;;;25.10;41.40;;;;;;5009992;28;20113;-50
2022/07/10 00:19:40;;;;;;;1.10;0.40;;;25.10;41.40;;;;;;5009666;28;20084;-54
2022/07/10 00:22:05;;;;;;;1.38;0.52;;;25.10;41.40;;;;;;5014051;28;20018;-55
2022/07/10 00:24:31;;;;;;;0.95;0.30;;;25.10;41.50;;;;;;5013149;28;20064;-49
2022/07/10 00:26:57;;;;;;;0.57;0.30;;;25.10;41.50;;;;;;5013628;28;20391;-51
2022/07/10 00:29:23;;;;;;;0.63;0.25;;;25.10;41.50;;;;;;5013366;28;20026;-48
2022/07/10 00:31:49;;;;;;;1.63;0.47;;;25.10;41.50;;;;;;5012900;28;20033;-55
2022/07/10 00:34:15;;;;;;;1.40;0.40;;;25.10;42.10;;;;;;5012810;28;20330;-51
2022/07/10 00:36:40;;;;;;;1.05;0.30;;;25.10;41.50;;;;;;5013385;28;20040;-56
2022/07/10 00:39:06;;;;;;;0.88;0.38;;;25.10;41.50;;;;;;5013533;28;20096;-51
2022/07/10 00:41:32;;;;;;;1.95;0.50;;;25.10;41.50;;;;;;5013917;28;20416;-51
2022/07/10 00:44:00;;;;;;;1.42;0.40;;;25.10;41.50;;;;;;5013369;28;20057;-54
2022/07/10 00:46:27;;;;;;;0.75;0.40;;;25.10;41.60;;;;;;5013078;28;20037;-50
2022/07/10 00:48:53;;;;;;;1.65;0.30;;;25.10;41.60;;;;;;5011956;28;20072;-53
2022/07/10 00:51:23;;;;;;;0.73;0.30;;;25.10;41.70;;;;;;5012930;28;20084;-50
2022/07/10 00:53:49;;;;;;;0.57;0.38;;;25.10;41.60;;;;;;5013137;28;20053;-50
2022/07/10 00:56:25;;;;;;;0.70;0.30;;;25.10;41.70;;;;;;5009790;28;20520;-50
2022/07/10 00:58:51;;;;;;;0.73;0.45;;;25.10;41.70;;;;;;5013229;28;20065;-50
2022/07/10 01:01:18;;;;;;;0.90;0.50;;;25.10;41.70;;;;;;5011825;28;20113;-52
2022/07/10 01:03:45;;;;;;;0.68;0.20;;;25.10;41.70;;;;;;5012824;28;20030;-54
2022/07/10 01:06:14;;;;;;;0.52;0.30;;;25.00;41.70;;;;;;5012183;28;20131;-49
2022/07/10 01:08:41;;;;;;;0.90;0.40;;;25.10;41.70;;;;;;5012842;28;20029;-52
2022/07/10 01:11:08;;;;;;;0.63;0.30;;;25.10;41.80;;;;;;5012697;28;20500;-50
2022/07/10 01:13:34;;;;;;;0.65;0.40;;;25.10;41.80;;;;;;5013395;28;20080;-50
2022/07/10 01:16:00;;;;;;;1.27;0.40;;;25.10;41.80;;;;;;5012513;28;20065;-48
2022/07/10 01:18:26;;;;;;;0.77;0.40;;;25.10;41.80;;;;;;5011252;28;20034;-50
2022/07/10 01:20:56;;;;;;;0.63;0.30;;;25.10;41.80;;;;;;5010259;28;20045;-48
2022/07/10 01:23:23;;;;;;;2.08;0.35;;;25.00;41.70;;;;;;5013084;28;20076;-47
2022/07/10 01:25:50;;;;;;;1.33;0.40;;;25.00;41.80;;;;;;5011630;28;21896;-48
2022/07/10 01:28:17;;;;;;;1.15;0.60;;;25.00;41.80;;;;;;5012378;28;20088;-51
2022/07/10 01:30:43;;;;;;;0.82;0.45;;;25.00;41.80;;;;;;5012292;28;20119;-51
2022/07/10 01:33:09;;;;;;;0.57;0.30;;;25.00;41.80;;;;;;5010955;28;20026;-54
2022/07/10 01:35:35;;;;;;;1.00;0.40;;;25.00;41.80;;;;;;5012335;28;20040;-53
2022/07/10 01:38:00;;;;;;;0.77;0.60;;;25.00;41.80;;;;;;5011779;28;20022;-53
2022/07/10 01:40:27;;;;;;;0.30;0.20;;;25.00;41.80;;;;;;5011793;28;20462;-57
2022/07/10 01:42:53;;;;;;;0.88;0.40;;;25.00;41.80;;;;;;5011954;28;20045;-50
2022/07/10 01:45:18;;;;;;;0.75;0.30;;;25.00;41.80;;;;;;5011735;28;20121;-51
2022/07/10 01:47:44;;;;;;;0.77;0.40;;;25.00;41.80;;;;;;5011226;28;20057;-51
2022/07/10 01:50:10;;;;;;;0.88;0.50;;;25.00;41.80;;;;;;5010987;28;20445;-51
2022/07/10 01:52:36;;;;;;;2.22;0.40;;;25.00;41.80;;;;;;5011891;28;20036;-52
2022/07/10 01:55:03;;;;;;;0.63;0.25;;;25.00;41.80;;;;;;5012326;28;20026;-53
2022/07/10 01:57:29;;;;;;;1.30;0.50;;;25.00;41.80;;;;;;5011101;28;20131;-54
2022/07/10 01:59:55;;;;;;;0.70;0.30;;;25.00;41.80;;;;;;5011941;28;20037;-49
2022/07/10 02:02:21;;;;;;;0.50;0.20;;;25.00;41.80;;;;;;5012365;28;20053;-53
2022/07/10 02:04:47;;;;;;;1.02;0.40;;;25.00;41.80;;;;;;5011252;28;20133;-53
2022/07/10 02:07:22;;;;;;;1.48;0.40;;;25.00;41.90;;;;;;5010850;28;20120;-51
2022/07/10 02:09:48;;;;;;;0.75;0.30;;;25.00;41.90;;;;;;5009926;28;20022;-52
2022/07/10 02:12:14;;;;;;;0.88;0.45;;;25.00;41.90;;;;;;5011945;28;20034;-53
2022/07/10 02:14:41;;;;;;;0.70;0.40;;;25.00;41.80;;;;;;5011742;28;21389;-53
2022/07/10 02:17:07;;;;;;;0.77;0.32;;;25.00;41.90;;;;;;5011814;28;20048;-51
2022/07/10 02:19:34;;;;;;;0.38;0.30;;;25.00;41.90;;;;;;5010567;28;20100;-55
2022/07/10 02:22:00;;;;;;;1.33;0.50;;;24.90;41.80;;;;;;5011298;28;20030;-52
2022/07/10 02:24:26;;;;;;;0.88;0.45;;;25.00;41.90;;;;;;5010557;28;20076;-53
2022/07/10 02:26:54;;;;;;;0.93;0.40;;;24.90;41.80;;;;;;5010261;28;20065;-56
2022/07/10 02:29:23;;;;;;;0.60;0.30;;;24.90;41.80;;;;;;5010195;28;20064;-56
2022/07/10 02:31:48;;;;;;;1.13;0.40;;;24.90;41.80;;;;;;5010576;28;20117;-50
2022/07/10 02:34:14;;;;;;;0.35;0.20;;;24.90;41.80;;;;;;5010072;28;20120;-54
2022/07/10 02:36:40;;;;;;;0.95;0.28;;;24.90;41.90;;;;;;5011072;28;20068;-53
2022/07/10 02:39:07;;;;;;;1.08;0.40;;;24.90;41.80;;;;;;5011484;28;20099;-50
2022/07/10 02:41:35;;;;;;;1.27;0.47;;;24.90;41.90;;;;;;5010672;28;20030;-53
2022/07/10 02:44:02;;;;;;;0.57;0.20;;;24.90;41.90;;;;;;5010675;28;20034;-51
2022/07/10 02:46:28;;;;;;;1.38;0.40;;;24.90;41.90;;;;;;5008622;28;20065;-51
2022/07/10 02:48:54;;;;;;;0.68;0.30;;;24.90;41.80;;;;;;5010176;28;20065;-51
2022/07/10 02:51:19;;;;;;;0.43;0.22;;;24.90;41.90;;;;;;5010297;28;20029;-54
2022/07/10 02:53:45;;;;;;;0.47;0.30;;;24.90;41.90;;;;;;5011910;28;20026;-51
2022/07/10 02:56:11;;;;;;;0.85;0.40;;;24.90;41.90;;;;;;5010175;28;20514;-48
2022/07/10 02:58:38;;;;;;;0.85;0.30;;;24.90;41.80;;;;;;5011540;28;20038;-54
2022/07/10 03:01:04;;;;;;;0.65;0.30;;;24.90;41.80;;;;;;5010548;28;20053;-46
2022/07/10 03:03:30;;;;;;;0.73;0.40;;;24.90;41.80;;;;;;5010842;28;20480;-48
2022/07/10 03:05:55;;;;;;;0.47;0.20;;;24.90;41.90;;;;;;5009910;28;20437;-52
2022/07/10 03:08:21;;;;;;;1.00;0.40;;;24.80;41.80;;;;;;5010648;28;20021;-52
2022/07/10 03:10:47;;;;;;;1.15;0.40;;;24.80;41.80;;;;;;5010179;28;20433;-59
2022/07/10 03:13:13;;;;;;;1.95;0.50;;;24.80;41.90;;;;;;5010759;28;20414;-53
2022/07/10 03:15:39;;;;;;;1.13;0.40;;;24.80;41.80;;;;;;5010429;28;20107;-54
2022/07/10 03:18:05;;;;;;;0.50;0.40;;;24.80;41.90;;;;;;5010384;28;20091;-52
2022/07/10 03:20:31;;;;;;;0.40;0.30;;;24.80;41.80;;;;;;5011017;28;20030;-54
2022/07/10 03:22:56;;;;;;;1.25;0.50;;;24.90;42.00;;;;;;5010703;28;20030;-51
2022/07/10 03:25:22;;;;;;;1.35;0.55;;;24.90;42.00;;;;;;5009423;28;20052;-51
2022/07/10 03:27:48;;;;;;;1.65;0.30;;;24.80;41.90;;;;;;5010073;28;20057;-54
2022/07/10 03:30:14;;;;;;;0.50;0.25;;;24.80;41.90;;;;;;5009346;28;20042;-50
2022/07/10 03:32:39;;;;;;;0.88;0.40;;;24.80;42.00;;;;;;5009780;28;20453;-49
2022/07/10 03:35:05;;;;;;;0.68;0.30;;;24.80;42.00;;;;;;5010115;28;20426;-49
2022/07/10 03:37:31;;;;;;;0.20;0.20;;;24.80;42.00;;;;;;5009952;28;20483;-53
2022/07/10 03:39:57;;;;;;;0.60;0.30;;;24.80;42.00;;;;;;5009969;28;20061;-50
2022/07/10 03:42:23;;;;;;;1.25;0.40;;;24.80;42.00;;;;;;5010295;28;20353;-48
2022/07/10 03:44:48;;;;;;;1.40;0.30;;;24.80;42.00;;;;;;5009722;28;20129;-49
2022/07/10 03:47:14;;;;;;;0.80;0.40;;;24.80;42.00;;;;;;5008740;28;20049;-52
2022/07/10 03:49:41;;;;;;;0.70;0.38;;;24.80;42.00;;;;;;5009887;28;20105;-54
2022/07/10 03:52:07;;;;;;;0.75;0.32;;;24.80;42.00;;;;;;5008711;28;20122;-52
2022/07/10 03:54:33;;;;;;;0.98;0.35;;;24.80;42.10;;;;;;5010297;28;20040;-51
2022/07/10 03:59:44;;;;;;;0.60;0.30;;;24.80;42.10;;;;;;5014538;28;20030;-51
2022/07/10 04:02:09;;;;;;;0.30;0.30;;;24.80;42.10;;;;;;5011809;28;20117;-53
2022/07/10 04:04:35;;;;;;;0.85;0.30;;;24.80;42.10;;;;;;5014631;28;20040;-49
2022/07/10 04:07:01;;;;;;;0.85;0.30;;;24.80;42.10;;;;;;5014022;28;20030;-48
2022/07/10 04:09:27;;;;;;;0.63;0.30;;;24.80;42.10;;;;;;5014489;28;20348;-52
2022/07/10 04:11:53;;;;;;;1.33;0.35;;;24.80;42.20;;;;;;5014057;28;20029;-50
2022/07/10 04:14:19;;;;;;;0.75;0.40;;;24.80;42.20;;;;;;5013967;28;20026;-51
2022/07/10 04:16:45;;;;;;;0.55;0.30;;;24.80;42.20;;;;;;5013658;28;20041;-56
2022/07/10 04:19:10;;;;;;;0.60;0.30;;;24.80;42.20;;;;;;5014166;28;20121;-49
2022/07/10 04:21:37;;;;;;;0.55;0.20;;;24.80;42.20;;;;;;5014626;28;20026;-50
2022/07/10 04:24:03;;;;;;;1.30;0.57;;;24.80;42.20;;;;;;5013672;28;20124;-51
2022/07/10 04:26:29;;;;;;;0.65;0.25;;;24.80;42.20;;;;;;5013490;28;20426;-48
2022/07/10 04:28:55;;;;;;;0.60;0.30;;;24.80;42.20;;;;;;5013565;28;20080;-46
2022/07/10 04:31:21;;;;;;;1.08;0.30;;;24.70;42.20;;;;;;5011015;28;20033;-52
2022/07/10 04:33:46;;;;;;;0.60;0.30;;;24.80;42.30;;;;;;5014244;28;20058;-47
2022/07/10 04:36:12;;;;;;;1.00;0.30;;;24.80;42.30;;;;;;5012784;28;20070;-51
2022/07/10 04:38:38;;;;;;;1.92;0.75;;;24.80;42.30;;;;;;5013847;28;20437;-48
2022/07/10 04:41:05;;;;;;;0.98;0.50;;;24.70;42.30;;;;;;5012899;28;20030;-50
2022/07/10 04:43:31;;;;;;;0.68;0.30;;;24.70;42.30;;;;;;5013790;28;20092;-49
2022/07/10 04:45:56;;;;;;;1.23;0.35;;;24.70;42.30;;;;;;5012750;28;21849;-53
2022/07/10 04:48:22;;;;;;;0.75;0.35;;;24.70;42.30;;;;;;5012413;28;20042;-50
2022/07/10 04:50:48;;;;;;;0.30;0.20;;;24.80;42.40;;;;;;5012720;28;20041;-52
2022/07/10 04:53:14;;;;;;;0.90;0.40;;;24.70;42.30;;;;;;5013155;28;20037;-50
2022/07/10 04:55:40;;;;;;;0.82;0.30;;;24.70;42.40;;;;;;5013738;28;20023;-48
2022/07/10 04:58:06;;;;;;;0.75;0.30;;;24.70;42.40;;;;;;5012213;28;20029;-53
2022/07/10 05:00:31;;;;;;;0.90;0.50;;;24.70;42.40;;;;;;5010571;28;20030;-49
2022/07/10 05:02:57;;;;;;;1.30;0.43;;;24.70;42.40;;;;;;5012359;28;20030;-46
2022/07/10 05:05:23;;;;;;;1.15;0.40;;;24.70;42.40;;;;;;5012913;28;20044;-50
2022/07/10 05:07:49;;;;;;;1.95;0.40;;;24.70;42.40;;;;;;5011367;28;20026;-54
2022/07/10 05:10:15;;;;;;;1.15;0.40;;;24.70;42.40;;;;;;5012715;28;20392;-48
2022/07/10 05:12:40;;;;;;;0.88;0.40;;;24.70;42.40;;;;;;5011664;28;20048;-51
2022/07/10 05:15:07;;;;;;;0.52;0.35;;;24.70;42.50;;;;;;5012597;28;20064;-50
2022/07/10 05:17:33;;;;;;;1.88;0.40;;;24.80;42.50;;;;;;5012513;28;20025;-53
2022/07/10 05:19:59;;;;;;;0.75;0.40;;;24.70;42.50;;;;;;5013200;28;20025;-55
2022/07/10 05:22:25;;;;;;;0.88;0.35;;;24.70;42.50;;;;;;5009600;28;20025;-52
2022/07/10 05:24:51;;;;;;;0.70;0.30;;;24.70;42.50;;;;;;5013080;28;20096;-51
2022/07/10 05:27:19;;;;;;;0.68;0.30;;;24.70;42.50;;;;;;5011741;28;20440;-52
2022/07/10 05:29:46;;;;;;;1.02;0.40;;;24.70;42.50;;;;;;5010944;28;20053;-52
2022/07/10 05:32:12;;;;;;;0.30;0.20;;;24.70;42.50;;;;;;5011492;28;20077;-49
2022/07/10 05:34:38;;;;;;;0.45;0.30;;;24.70;43.10;;;;;;5011880;28;20373;-50
2022/07/10 05:37:05;;;;;;;0.57;0.20;;;24.70;42.50;;;;;;5011361;28;20036;-54
2022/07/10 05:39:31;;;;;;;1.38;0.45;;;24.70;42.50;;;;;;5012530;28;20049;-58
2022/07/10 05:41:57;;;;;;;0.52;0.30;;;24.70;42.50;;;;;;5011963;28;20567;-49
2022/07/10 05:44:24;;;;;;;0.63;0.22;;;24.70;42.50;;;;;;5011146;28;20021;-51
2022/07/10 05:46:49;;;;;;;0.30;0.25;;;24.70;42.50;;;;;;5011876;28;20034;-49
2022/07/10 05:49:16;;;;;;;0.95;0.40;;;24.70;42.50;;;;;;5012136;28;20045;-53
2022/07/10 05:51:42;;;;;;;0.90;0.40;;;24.70;42.60;;;;;;5012532;28;20022;-50
2022/07/10 05:54:08;;;;;;;1.20;0.45;;;24.70;42.60;;;;;;5011797;28;20360;-53
2022/07/10 05:56:35;;;;;;;1.00;0.40;;;24.70;42.60;;;;;;5012462;28;20376;-51
2022/07/10 05:59:01;;;;;;;0.80;0.30;;;24.80;42.70;;;;;;5009920;28;20061;-52
2022/07/10 06:01:27;;;;;;;1.02;0.38;;;24.70;42.60;;;;;;5010036;28;20108;-50
2022/07/10 06:03:53;;;;;;;0.45;0.20;;;24.70;43.20;;;;;;5011427;28;20036;-47
2022/07/10 06:06:19;;;;;;;0.52;0.40;;;24.70;42.70;;;;;;5011922;28;20451;-49
2022/07/10 06:08:45;;;;;;;1.10;0.50;;;24.70;42.70;;;;;;5011603;28;20123;-48
2022/07/10 06:11:11;;;;;;;1.00;0.40;;;24.70;42.70;;;;;;5010796;28;20061;-51
2022/07/10 06:13:38;;;;;;;1.52;0.45;;;24.70;42.70;;;;;;5009334;28;20471;-53
2022/07/10 06:16:04;;;;;;;0.90;0.30;;;24.70;42.70;;;;;;5012377;28;20160;-53
2022/07/10 06:18:31;;;;;;;0.70;0.40;;;24.70;42.70;;;;;;5011147;28;20053;-50
2022/07/10 06:20:57;;;;;;;1.15;0.30;;;24.70;42.70;;;;;;5011220;28;20049;-54
2022/07/10 06:23:23;;;;;;;1.33;0.40;;;24.70;42.80;;;;;;5010239;28;20030;-53
2022/07/10 06:25:49;;;;;;;0.32;0.30;;;24.70;42.80;;;;;;5012042;28;20385;-55
2022/07/10 06:28:16;;;;;;;1.75;0.55;;;24.70;42.90;;;;;;5009870;28;20088;-53
2022/07/10 06:30:42;;;;;;;0.70;0.40;;;24.70;42.90;;;;;;5010416;28;20030;-53
2022/07/10 06:33:08;;;;;;;0.47;0.32;;;24.70;43.00;;;;;;5010581;28;20026;-53
2022/07/10 06:35:34;;;;;;;1.40;0.60;;;24.70;43.00;;;;;;5010638;28;20026;-51
2022/07/10 06:38:01;;;;;;;0.70;0.30;;;24.70;43.10;;;;;;5011967;28;20053;-52
2022/07/10 06:40:29;;;;;;;1.15;0.40;;;24.70;43.10;;;;;;5009979;28;20113;-52
2022/07/10 06:42:55;;;;;;;1.00;0.50;;;24.70;43.20;;;;;;5010190;28;20034;-54
2022/07/10 06:45:21;;;;;;;1.55;0.40;;;24.70;43.20;;;;;;5010192;28;20038;-53
2022/07/10 06:47:56;;;;;;;0.73;0.30;;;24.70;43.30;;;;;;5011246;28;20421;-51
2022/07/10 06:50:24;;;;;;;1.20;0.30;;;24.70;43.30;;;;;;5009967;28;20042;-51
2022/07/10 06:52:50;;;;;;;0.55;0.40;;;24.70;43.40;;;;;;5011164;28;20053;-56
2022/07/10 06:55:17;;;;;;;3.08;0.65;;;24.70;43.40;;;;;;5010603;28;20025;-49
2022/07/10 06:57:44;;;;;;;1.00;0.30;;;24.70;43.50;;;;;;5010243;28;20484;-56
2022/07/10 07:00:11;;;;;;;1.05;0.32;;;24.70;43.50;;;;;;5010836;28;20030;-54
2022/07/10 07:02:37;;;;;;;1.65;0.35;;;24.70;43.60;;;;;;5010462;28;20025;-50
2022/07/10 07:05:04;;;;;;;1.50;0.52;;;24.70;43.60;;;;;;5009887;28;20038;-55
2022/07/10 07:07:29;;;;;;;0.43;0.32;;;24.70;43.70;;;;;;5009846;28;20056;-51
2022/07/10 07:09:55;;;;;;;0.57;0.38;;;24.70;43.80;;;;;;5011225;28;20117;-50
2022/07/10 07:12:21;;;;;;;1.00;0.35;;;24.70;43.80;;;;;;5010734;28;20029;-55
2022/07/10 07:14:47;;;;;;;1.23;0.40;;;24.70;43.90;;;;;;5006392;28;20033;-57
2022/07/10 07:17:14;;;;;;;0.95;0.30;;;24.70;43.90;;;;;;5009635;28;20080;-54
2022/07/10 07:25:11;;;;;;;1.65;0.50;;;24.70;44.10;;;;;;5013233;28;20475;-51
2022/07/10 07:27:38;;;;;;;0.50;0.20;;;24.70;44.20;;;;;;5014060;28;20384;-50
2022/07/10 07:30:14;;;;;;;0.80;0.50;;;24.70;44.30;;;;;;5013318;28;20038;-58
2022/07/10 07:32:41;;;;;;;1.42;0.43;;;24.70;44.40;;;;;;5013660;28;20395;-52
2022/07/10 07:35:08;;;;;;;0.47;0.25;;;24.70;44.40;;;;;;5014990;28;20030;-50
2022/07/10 07:37:38;;;;;;;1.27;0.45;;;24.70;44.50;;;;;;5014793;28;20033;-54
2022/07/10 07:40:06;;;;;;;1.10;0.50;;;24.70;44.60;;;;;;5014288;28;20064;-52
2022/07/10 07:42:32;;;;;;;0.47;0.30;;;24.70;44.70;;;;;;5014185;28;20022;-50
2022/07/10 07:44:57;;;;;;;1.90;0.52;;;24.70;44.70;;;;;;5014569;28;20030;-52
2022/07/10 07:47:23;;;;;;;1.02;0.40;;;24.70;44.70;;;;;;5012647;28;20052;-54
2022/07/10 07:49:49;;;;;;;1.00;0.38;;;24.70;44.80;;;;;;5015151;28;20034;-54
2022/07/10 07:52:15;;;;;;;1.13;0.30;;;24.70;44.90;;;;;;5013490;28;20349;-52
2022/07/10 07:54:40;;;;;;;0.50;0.32;;;24.70;44.90;;;;;;5013659;28;20038;-56
2022/07/10 07:57:06;;;;;;;2.08;0.52;;;24.70;45.00;;;;;;5014145;28;20038;-55
2022/07/10 07:59:32;;;;;;;1.35;0.60;;;24.70;45.00;;;;;;5014930;28;20045;-49
2022/07/10 08:01:58;;;;;;;1.55;0.47;;;24.80;45.10;;;;;;5014450;28;20025;-48
2022/07/10 08:04:24;;;;;;;0.98;0.45;;;24.70;45.10;;;;;;5014818;28;20096;-50
2022/07/10 08:06:52;;;;;;;0.55;0.40;;;24.70;45.20;;;;;;5014869;28;20120;-56
2022/07/10 08:09:18;;;;;;;0.93;0.45;;;24.70;45.20;;;;;;5013433;28;20059;-57
2022/07/10 08:11:44;;;;;;;2.22;0.50;;;24.70;45.20;;;;;;5014267;28;20034;-48
2022/07/10 08:14:10;;;;;;;1.50;0.63;;;24.70;45.30;;;;;;5014687;28;20026;-54
2022/07/10 08:16:36;;;;;;;1.95;0.40;;;24.80;45.40;;;;;;5014306;28;20441;-56
2022/07/10 08:19:02;;;;;;;1.00;0.40;;;24.70;45.30;;;;;;5014393;28;20022;-53
2022/07/10 08:21:28;;;;;;;0.77;0.50;;;24.80;45.40;;;;;;5011786;28;20026;-50
2022/07/10 08:23:53;;;;;;;0.77;0.45;;;24.80;45.50;;;;;;5013545;28;20036;-50
2022/07/10 08:26:20;;;;;;;0.40;0.30;;;24.80;45.50;;;;;;5013501;28;20408;-56
2022/07/10 08:28:45;;;;;;;1.15;0.45;;;24.80;45.50;;;;;;5013293;28;20065;-50
2022/07/10 08:31:11;;;;;;;1.17;0.50;;;24.80;45.60;;;;;;5014116;28;20080;-50
2022/07/10 08:33:37;;;;;;;0.77;0.40;;;24.80;45.60;;;;;;5014016;28;20117;-56
2022/07/10 08:36:04;;;;;;;0.90;0.50;;;24.80;45.60;;;;;;5013492;28;20034;-51
2022/07/10 08:38:34;;;;;;;0.80;0.50;;;24.70;45.60;;;;;;5013783;28;20025;-51
2022/07/10 08:41:04;;;;;;;1.40;0.50;;;24.80;45.70;;;;;;5014209;28;20038;-46
2022/07/10 08:43:31;;;;;;;0.40;0.40;;;24.80;45.70;;;;;;5016892;28;20034;-51
2022/07/10 08:45:58;;;;;;;0.77;0.50;;;24.80;45.80;;;;;;5018035;28;20081;-49
2022/07/10 08:48:25;;;;;;;1.30;0.50;;;24.80;45.80;;;;;;5015994;28;20077;-54
2022/07/10 08:50:55;;;;;;;0.73;0.35;;;24.80;45.80;;;;;;5017375;28;20038;-58
2022/07/10 08:53:26;;;;;;;1.08;0.47;;;24.80;45.90;;;;;;5015975;28;20467;-51
2022/07/10 08:55:53;;;;;;;2.00;0.43;;;24.80;45.90;;;;;;5006549;28;20034;-50
2022/07/10 08:58:23;;;;;;;0.73;0.47;;;24.80;45.90;;;;;;4998272;28;20022;-53
2022/07/10 09:00:52;;;;;;;1.05;0.60;;;24.80;45.90;;;;;;5004181;28;20072;-54
2022/07/10 09:03:21;;;;;;;1.42;0.45;;;24.80;45.90;;;;;;5015420;28;20337;-57
2022/07/10 09:05:51;;;;;;;0.95;0.45;;;24.80;46.00;;;;;;5017157;28;20069;-48
2022/07/10 09:08:31;;;;;;;1.60;0.50;;;24.80;45.90;;;;;;5017702;28;20345;-51
2022/07/10 09:11:19;;;;;;;1.60;0.57;;;24.80;46.00;;;;;;5017603;28;20037;-48
2022/07/10 09:13:58;;;;;;;0.35;0.35;;;24.80;46.00;;;;;;5017475;28;20026;-50
2022/07/10 09:16:38;;;;;;;0.80;0.43;;;24.80;46.00;;;;;;5010602;28;20381;-56
2022/07/10 09:19:29;;;;;;;1.77;0.40;;;24.80;46.00;;;;;;5010344;28;20048;-54
2022/07/10 09:22:16;;;;;;;0.93;0.40;;;24.80;46.00;;;;;;5017189;28;20022;-51
2022/07/10 09:24:46;;;;;;;0.82;0.40;;;24.80;46.00;;;;;;5016444;28;20029;-51
2022/07/10 09:27:15;;;;;;;1.00;0.40;;;24.80;46.00;;;;;;5017510;28;20104;-56
2022/07/10 09:29:58;;;;;;;0.45;0.28;;;24.80;46.00;;;;;;5016982;28;20349;-49
2022/07/10 09:32:31;;;;;;;0.80;0.30;;;24.90;46.10;;;;;;5017210;28;20087;-52
2022/07/10 09:37:52;;;;;;;0.45;0.20;;;24.90;46.00;;;;;;5016128;28;20037;-51
2022/07/10 09:40:20;;;;;;;1.50;0.43;;;24.90;45.90;;;;;;5015494;28;20025;-57
2022/07/10 09:42:49;;;;;;;0.63;0.40;;;24.90;45.90;;;;;;5017570;28;20053;-55
2022/07/10 09:45:21;;;;;;;2.38;0.40;;;24.90;45.80;;;;;;5016608;28;20112;-57
2022/07/10 09:47:50;;;;;;;1.02;0.43;;;24.90;45.80;;;;;;5016527;28;20495;-50
2022/07/10 09:50:39;;;;;;;0.40;0.17;;;24.90;45.70;;;;;;5015027;28;20050;-53
2022/07/10 09:53:10;;;;;;;1.17;0.45;;;24.90;45.70;;;;;;5016149;28;20050;-52
2022/07/10 09:55:39;;;;;;;1.02;0.40;;;24.90;45.60;;;;;;5013758;28;20029;-53
2022/07/10 09:58:16;;;;;;;0.57;0.28;;;24.90;45.60;;;;;;5013878;28;20110;-49
2022/07/10 10:00:57;;;;;;;1.42;0.40;;;25.00;45.60;;;;;;5012105;28;20465;-54
2022/07/10 10:03:28;;;;;;;0.80;0.40;;;24.90;45.50;;;;;;5010426;28;20021;-51
2022/07/10 10:06:16;;;;;;;0.88;0.35;;;25.00;45.50;;;;;;5012001;28;20080;-54
2022/07/10 10:09:01;;;;;;;1.52;0.40;;;25.00;45.40;;;;;;5011811;28;20525;-51
2022/07/10 10:11:53;;;;;;;0.60;0.30;;;25.00;45.40;;;;;;5012120;28;20323;-50
2022/07/10 10:14:24;;;;;;;1.20;0.40;;;25.00;45.40;;;;;;5011776;28;20056;-52
2022/07/10 10:16:55;;;;;;;1.77;0.63;;;25.00;45.30;;;;;;5010261;28;20342;-50
2022/07/10 10:22:20;;;;;;;1.02;0.45;;;25.00;45.20;;;;;;5015255;28;20068;-48
2022/07/10 10:24:56;;;;;;;0.70;0.30;;;25.00;45.20;;;;;;5014161;28;20540;-55
2022/07/10 10:27:24;;;;;;;0.80;0.30;;;25.00;45.10;;;;;;5010794;28;20037;-50
2022/07/10 10:29:52;;;;;;;0.65;0.40;;;25.00;45.10;;;;;;5011977;28;20084;-51
2022/07/10 10:32:19;;;;;;;0.47;0.30;;;25.00;45.10;;;;;;5010252;28;20034;-51
2022/07/10 10:34:57;;;;;;;1.38;0.50;;;25.00;45.10;;;;;;5011340;28;20034;-48
2022/07/10 10:37:32;;;;;;;0.77;0.55;;;25.10;45.20;;;;;;5009714;28;20492;-52
2022/07/10 10:40:01;;;;;;;0.90;0.32;;;25.10;45.20;;;;;;5011596;28;20052;-50
2022/07/10 10:42:34;;;;;;;1.13;0.82;;;25.10;45.20;;;;;;5010648;28;20029;-46
2022/07/10 10:45:31;;;;;;;1.23;0.40;;;25.10;45.30;;;;;;5010496;28;20049;-49
2022/07/10 10:48:13;;;;;;;1.90;0.82;;;25.10;45.30;;;;;;5007969;28;20050;-56
2022/07/10 10:50:53;;;;;;;1.10;0.70;;;25.10;45.30;;;;;;5008110;28;20140;-53
2022/07/10 10:53:29;;;;;;;1.27;0.60;;;25.10;45.20;;;;;;5010030;28;20028;-51
2022/07/10 10:56:07;;;;;;;1.27;0.40;;;25.10;45.20;;;;;;5008704;28;20037;-50
2022/07/10 10:58:44;;;;;;;0.73;0.45;;;25.10;45.10;;;;;;5010309;28;20717;-49
2022/07/10 11:01:27;;;;;;;0.90;0.50;;;25.10;45.10;;;;;;5008652;28;20034;-53
2022/07/10 11:04:19;;;;;;;0.75;0.32;;;25.10;45.00;;;;;;5008716;28;20108;-55
2022/07/10 11:06:56;;;;;;;1.50;0.75;;;25.10;44.90;;;;;;5009024;28;20038;-48
2022/07/10 11:09:37;;;;;;;0.95;0.30;;;25.10;44.90;;;;;;5011426;28;20034;-50
2022/07/10 11:12:12;;;;;;;0.68;0.30;;;25.10;44.80;;;;;;5007752;28;20040;-49
2022/07/10 11:14:52;;;;;;;0.55;0.38;;;25.10;44.70;;;;;;5010337;28;20030;-52
2022/07/10 11:17:29;;;;;;;0.85;0.30;;;25.10;44.70;;;;;;5009533;28;20449;-57
2022/07/10 11:20:01;;;;;;;0.43;0.28;;;25.20;44.80;;;;;;5007934;28;20029;-59
2022/07/10 11:22:42;;;;;;;0.63;0.40;;;25.20;44.80;;;;;;5011128;28;20026;-57
2022/07/10 11:25:12;;;;;;;0.43;0.28;;;25.20;44.80;;;;;;5005277;28;20479;-55
2022/07/10 11:27:59;;;;;;;0.57;0.30;;;25.20;44.80;;;;;;5002296;28;20037;-56
2022/07/10 11:30:25;;;;;;;0.90;0.35;;;25.20;44.80;;;;;;5006956;28;20492;-56
2022/07/10 11:32:52;;;;;;;1.38;0.50;;;25.20;44.80;;;;;;5005751;28;20112;-53
2022/07/10 11:35:19;;;;;;;0.20;0.20;;;25.20;44.80;;;;;;5007256;28;20021;-55
2022/07/10 11:37:52;;;;;;;0.45;0.25;;;25.30;44.80;;;;;;5009269;28;20112;-51
2022/07/10 11:40:19;;;;;;;0.47;0.30;;;25.30;44.70;;;;;;5007765;28;20049;-57
2022/07/10 11:43:09;;;;;;;0.57;0.30;;;25.30;44.70;;;;;;5009811;28;20038;-52
2022/07/10 11:45:38;;;;;;;0.32;0.32;;;25.30;44.60;;;;;;5009902;28;20061;-52
2022/07/10 11:48:07;;;;;;;0.30;0.30;;;25.30;44.60;;;;;;5005636;28;20426;-53
2022/07/10 11:50:38;;;;;;;0.50;0.28;;;25.30;44.60;;;;;;5010240;28;20042;-49
2022/07/10 11:53:05;;;;;;;0.30;0.25;;;25.30;44.50;;;;;;5010938;28;20075;-56
2022/07/10 11:55:36;;;;;;;1.30;0.30;;;25.30;44.50;;;;;;5007602;28;20437;-50
2022/07/10 11:58:19;;;;;;;0.82;0.35;;;25.30;44.50;;;;;;5007157;28;20380;-54
2022/07/10 12:01:02;;;;;;;0.60;0.20;;;25.40;44.40;;;;;;5009522;28;20042;-53
2022/07/10 12:03:28;;;;;;;1.00;0.40;;;25.40;44.40;;;;;;5011661;28;20056;-57
2022/07/10 12:05:54;;;;;;;0.95;0.52;;;25.30;44.30;;;;;;5012973;28;20042;-55
2022/07/10 12:08:20;;;;;;;0.75;0.35;;;25.40;44.40;;;;;;5013974;28;20041;-53
2022/07/10 12:10:45;;;;;;;0.20;0.20;;;25.40;44.30;;;;;;5012990;28;20034;-53
2022/07/10 12:13:15;;;;;;;0.85;0.32;;;25.40;44.30;;;;;;5005852;28;20030;-58
2022/07/10 12:15:45;;;;;;;1.48;0.40;;;25.40;44.30;;;;;;5006085;28;20026;-53
2022/07/10 12:18:22;;;;;;;0.30;0.30;;;25.40;44.30;;;;;;5017742;28;20063;-53
2022/07/10 12:20:49;;;;;;;0.93;0.30;;;25.40;44.10;;;;;;5005957;28;20084;-51
2022/07/10 12:23:16;;;;;;;0.32;0.28;;;25.40;44.10;;;;;;5012179;28;20486;-55
2022/07/10 12:25:43;;;;;;;0.50;0.30;;;25.40;44.10;;;;;;5008716;28;20049;-57
2022/07/10 12:28:10;;;;;;;0.28;0.20;;;25.40;44.00;;;;;;5013911;28;20057;-54
2022/07/10 12:30:47;;;;;;;0.85;0.40;;;25.50;44.10;;;;;;5014915;28;20353;-53
2022/07/10 12:33:18;;;;;;;0.30;0.20;;;25.50;44.00;;;;;;5013787;28;20045;-56
2022/07/10 12:35:57;;;;;;;0.93;0.32;;;25.50;44.00;;;;;;5010256;28;20096;-54
2022/07/10 12:38:28;;;;;;;0.30;0.30;;;25.60;44.00;;;;;;5010612;28;20053;-51
2022/07/10 12:41:13;;;;;;;1.85;0.40;;;25.50;43.90;;;;;;5013926;28;20022;-52
2022/07/10 12:43:40;;;;;;;0.93;0.25;;;25.50;43.80;;;;;;5010151;28;20104;-53
2022/07/10 12:46:23;;;;;;;0.55;0.30;;;25.60;43.90;;;;;;5009930;28;20108;-53
2022/07/10 12:49:06;;;;;;;0.20;0.20;;;25.60;43.80;;;;;;5010408;28;20141;-49
2022/07/10 12:51:44;;;;;;;1.30;0.30;;;25.60;43.80;;;;;;5012155;28;20061;-57
2022/07/10 12:54:33;;;;;;;0.95;0.45;;;25.60;43.80;;;;;;5011463;28;20060;-56
2022/07/10 12:57:00;;;;;;;0.95;0.40;;;25.60;43.70;;;;;;5011966;28;20037;-56
2022/07/10 12:59:29;;;;;;;0.40;0.20;;;25.60;43.80;;;;;;5011976;28;20088;-54
2022/07/10 13:01:55;;;;;;;1.10;0.30;;;25.60;43.80;;;;;;5011695;28;20030;-52
2022/07/10 13:04:26;;;;;;;0.95;0.20;;;25.60;43.70;;;;;;5007538;28;20028;-53
2022/07/10 13:06:54;;;;;;;0.52;0.30;;;25.70;43.70;;;;;;5010310;28;20133;-51
2022/07/10 13:09:21;;;;;;;0.47;0.30;;;25.70;43.70;;;;;;5012139;28;20025;-52